EmailTwitter


Observations de surface / France / LFBO (07630)

Régions: Québec | Canada | États-Unis | Europe | France | UK | Ailleurs
Station
Affichage
Infos & localisation pour LFBO (07630) | Aide pour décoder les METARs

Observations prises le 2020-07-15 à 12H00 UTC à TOULOUSE/BLAGNAC, FR (LFBO)

Etat du ciel: couvert.

Température: 21.0 Celsius

Point de rosée: 14.0 Celsius

Humidité relative: 64%

Vents: Ouest à 22 km/h ou 12 noeuds.

Pression au niveau moyen de la mer: 102.00 kilopascals.

Visibilité horizontale: 6.21 milles terrestres ou 9.94 kilomètres.

Hauteur du plafond: 975 mètres ( 3200 pieds ).

Observation METAR:

LFBO 151200Z AUTO 27012KT 9999 BKN032 BKN042 OVC084 21/14 Q1020 TEMPO

28015G25KT=